Time;durP1;ratioP1;P1;durP2;ratioP2;P2;SDS_P1;SDS_P2;PMS_P1;PMS_P2;Temp;Humidity;BMP_temperature;BMP_pressure;BME280_temperature;BME280_humidity;BME280_pressure;Samples;Min_cycle;Max_cycle;Signal;HPM_P1;HPM_P2
2022/06/02 00:00:13;;;;;;;3.37;3.07;;;;;;;14.18;88.37;97752.91;6252023;28;20219;-46
2022/06/02 00:03:42;;;;;;;2.90;2.70;;;;;;;14.18;88.85;97747.59;6256780;28;20655;-47
2022/06/02 00:07:10;;;;;;;2.60;2.40;;;;;;;14.14;88.61;97743.56;6256440;28;20311;-48
2022/06/02 00:10:23;;;;;;;2.73;2.53;;;;;;;14.09;88.37;97739.66;6256324;28;20712;-46
2022/06/02 00:13:37;;;;;;;3.00;2.30;;;;;;;14.04;88.43;97748.91;6256458;28;20239;-47
2022/06/02 00:17:06;;;;;;;2.73;2.53;;;;;;;13.96;88.88;97748.78;6256664;28;20342;-51
2022/06/02 00:20:20;;;;;;;2.83;2.63;;;;;;;13.90;88.88;97735.25;6256164;28;20368;-48
2022/06/02 00:23:31;;;;;;;2.80;2.60;;;;;;;13.77;88.85;97743.53;6255699;28;20448;-45
2022/06/02 00:27:09;;;;;;;2.90;2.70;;;;;;;13.71;89.13;97738.75;6255609;28;20242;-44
2022/06/02 00:30:26;;;;;;;2.80;2.60;;;;;;;13.66;89.57;97741.00;6225029;28;20357;-49
2022/06/02 00:33:37;;;;;;;2.60;2.40;;;;;;;13.68;89.40;97741.69;6238164;28;20654;-46
2022/06/02 00:36:51;;;;;;;3.10;2.80;;;;;;;13.73;89.20;97752.72;6255652;28;20364;-51
2022/06/02 00:39:53;;;;;;;4.93;2.33;;;;;;;13.76;89.10;97741.84;6255479;28;20714;-49
2022/06/02 00:43:20;;;;;;;3.30;3.00;;;;;;;13.81;88.62;97736.94;6255425;28;20262;-46
2022/06/02 00:46:31;;;;;;;4.20;2.37;;;;;;;13.76;88.86;97749.78;6254126;28;20296;-45
2022/06/02 00:49:58;;;;;;;2.77;2.57;;;;;;;13.73;89.01;97743.94;6255443;28;20286;-51
2022/06/02 00:53:37;;;;;;;3.40;2.47;;;;;;;13.73;89.05;97749.22;6255990;28;20761;-47
2022/06/02 01:05:00;;;;;;;2.73;2.53;;;;;;;13.61;89.33;97741.41;6249525;28;20582;-48
2022/06/02 01:08:32;;;;;;;1.80;1.70;;;;;;;13.59;89.12;97753.13;6255214;28;20265;-47
2022/06/02 01:12:06;;;;;;;2.50;2.40;;;;;;;13.58;88.91;97754.09;6242105;28;20234;-46
2022/06/02 01:15:29;;;;;;;2.50;2.30;;;;;;;13.51;88.71;97750.34;6255062;28;20234;-48
2022/06/02 01:18:58;;;;;;;2.30;2.17;;;;;;;13.46;88.60;97750.78;6254586;28;20272;-48
2022/06/02 01:22:25;;;;;;;2.47;2.27;;;;;;;13.42;88.47;97752.03;6255516;28;20335;-46
2022/06/02 01:25:57;;;;;;;2.53;2.33;;;;;;;13.36;88.87;97757.06;6254073;28;20781;-45
2022/06/02 01:29:24;;;;;;;2.60;2.40;;;;;;;13.34;88.90;97746.59;6237294;28;20235;-44
2022/06/02 01:32:42;;;;;;;2.10;2.00;;;;;;;13.34;88.56;97746.59;6247792;28;20627;-50
2022/06/02 01:36:25;;;;;;;2.57;2.37;;;;;;;13.33;88.57;97742.25;6254506;28;20315;-44
2022/06/02 01:39:46;;;;;;;2.60;2.40;;;;;;;13.27;88.73;97737.53;6252967;28;20361;-44
2022/06/02 01:43:02;;;;;;;2.57;2.37;;;;;;;13.23;88.71;97739.59;6254352;28;20252;-44
2022/06/02 01:46:23;;;;;;;3.13;2.30;;;;;;;13.08;88.59;97740.09;6267432;28;21113;-44
2022/06/02 01:49:39;;;;;;;3.00;2.63;;;;;;;13.00;88.96;97739.94;6263180;28;20326;-45
2022/06/02 01:53:00;;;;;;;4.03;2.97;;;;;;;12.99;88.99;97749.69;6236776;28;20231;-44
2022/06/02 01:56:20;;;;;;;3.23;2.53;;;;;;;12.88;89.09;97745.34;6253691;28;20231;-45
2022/06/02 01:59:38;;;;;;;2.90;2.70;;;;;;;12.81;89.23;97753.97;6255133;28;20227;-44
2022/06/02 02:03:07;;;;;;;3.13;2.83;;;;;;;12.77;89.25;97748.16;6252934;28;20304;-44
2022/06/02 02:06:12;;;;;;;5.53;2.80;;;;;;;12.71;89.29;97753.97;6254499;28;20231;-45
2022/06/02 02:09:38;;;;;;;3.13;2.93;;;;;;;12.68;89.10;97756.88;6253259;28;20219;-45
2022/06/02 02:12:49;;;;;;;5.90;2.80;;;;;;;12.64;89.28;97752.81;6244467;28;20267;-45
2022/06/02 02:16:19;;;;;;;2.87;2.67;;;;;;;12.66;89.65;97750.91;6235331;28;20350;-46
2022/06/02 02:19:56;;;;;;;2.90;2.70;;;;;;;12.67;89.55;97754.38;6254566;28;20630;-45
2022/06/02 02:23:24;;;;;;;3.00;2.70;;;;;;;12.68;89.33;97763.97;6253057;28;20225;-44
2022/06/02 02:26:36;;;;;;;2.60;2.40;;;;;;;12.60;89.25;97762.00;6220328;28;20233;-44
2022/06/02 02:29:54;;;;;;;3.73;2.90;;;;;;;12.53;89.31;97777.59;6253856;28;20373;-45
2022/06/02 02:33:05;;;;;;;3.67;2.90;;;;;;;12.51;89.68;97762.81;6252612;28;20311;-46
2022/06/02 02:36:32;;;;;;;2.60;2.40;;;;;;;12.52;89.29;97759.19;6253494;28;20226;-45
2022/06/02 02:39:51;;;;;;;6.20;2.57;;;;;;;12.49;89.49;97759.44;6252976;28;20598;-45
2022/06/02 02:42:57;;;;;;;3.97;3.10;;;;;;;12.48;89.68;97766.53;6253637;28;20285;-47
2022/06/02 02:46:14;;;;;;;4.70;3.20;;;;;;;12.46;89.82;97759.72;6252915;28;20244;-43
2022/06/02 02:49:32;;;;;;;4.83;3.23;;;;;;;12.45;89.89;97758.06;6253371;28;20238;-44
2022/06/02 02:52:53;;;;;;;3.17;2.17;;;;;;;12.48;89.74;97760.41;6252309;28;20286;-46
2022/06/02 02:56:28;;;;;;;3.00;2.53;;;;;;;12.50;89.67;97766.41;6252941;28;20277;-44
2022/06/02 02:59:40;;;;;;;3.40;3.10;;;;;;;12.50;90.08;97772.56;6253584;28;20625;-44
2022/06/02 03:03:05;;;;;;;3.73;3.07;;;;;;;12.51;90.14;97783.97;6252545;28;20280;-46
2022/06/02 03:06:28;;;;;;;4.33;3.33;;;;;;;12.54;90.22;97786.38;6252804;28;20235;-44
2022/06/02 03:09:40;;;;;;;6.30;3.60;;;;;;;12.57;90.56;97781.66;6253883;28;20277;-46
2022/06/02 03:13:04;;;;;;;4.90;3.50;;;;;;;12.62;91.46;97767.16;6258334;28;20280;-46
2022/06/02 03:16:12;;;;;;;6.07;4.20;;;;;;;12.68;91.49;97778.06;6256254;28;20308;-48
2022/06/02 03:19:32;;;;;;;3.27;3.07;;;;;;;12.74;91.36;97772.25;6256970;28;20579;-46
2022/06/02 03:23:12;;;;;;;3.20;2.93;;;;;;;12.79;91.63;97777.13;6256652;28;20260;-47
2022/06/02 03:26:51;;;;;;;3.27;2.97;;;;;;;12.86;91.59;97775.63;6257158;28;20234;-50
2022/06/02 03:30:25;;;;;;;3.80;3.37;;;;;;;12.88;91.10;97771.84;6252203;28;20234;-44
2022/06/02 03:33:49;;;;;;;3.87;3.33;;;;;;;12.92;91.36;97767.13;6256822;28;20273;-45
2022/06/02 03:37:12;;;;;;;3.87;3.37;;;;;;;12.97;90.98;97772.88;6255428;28;20235;-44
2022/06/02 03:40:36;;;;;;;4.10;3.20;;;;;;;13.01;91.23;97782.19;6256729;28;20235;-44
2022/06/02 03:43:47;;;;;;;3.13;2.87;;;;;;;13.05;90.92;97783.63;6256593;28;20232;-46
2022/06/02 03:47:14;;;;;;;5.10;3.50;;;;;;;13.06;91.50;97777.34;6256473;28;20557;-49
2022/06/02 03:50:44;;;;;;;3.10;2.90;;;;;;;13.08;91.19;97785.13;6256293;28;20239;-45
2022/06/02 03:53:49;;;;;;;3.03;2.83;;;;;;;13.11;90.76;97788.38;6255899;28;20241;-48
2022/06/02 03:57:15;;;;;;;3.20;2.90;;;;;;;13.12;90.72;97795.34;6256276;28;20238;-45
2022/06/02 04:00:27;;;;;;;4.47;3.00;;;;;;;13.11;90.93;97798.13;6256074;28;20310;-44
2022/06/02 04:03:46;;;;;;;2.67;2.47;;;;;;;13.10;91.18;97801.75;6255766;28;20247;-46
2022/06/02 04:07:22;;;;;;;4.70;2.17;;;;;;;13.10;91.03;97804.41;6255466;28;20232;-46
2022/06/02 04:10:49;;;;;;;2.73;1.80;;;;;;;13.17;90.69;97806.41;6255669;28;20242;-47
2022/06/02 04:14:03;;;;;;;2.00;1.80;;;;;;;13.24;89.88;97796.94;6255434;28;20692;-48
2022/06/02 04:17:27;;;;;;;2.13;1.93;;;;;;;13.34;89.39;97804.06;6256566;28;20309;-45
2022/06/02 04:20:59;;;;;;;3.00;2.00;;;;;;;13.35;88.58;97806.59;6255552;28;20261;-44
2022/06/02 04:24:21;;;;;;;2.40;2.20;;;;;;;13.30;88.70;97809.63;6238890;28;20303;-46
2022/06/02 04:27:37;;;;;;;3.40;2.70;;;;;;;13.25;89.20;97817.16;6255032;28;20586;-46
2022/06/02 04:30:54;;;;;;;5.10;2.40;;;;;;;13.22;89.44;97817.44;6255669;28;20382;-46
2022/06/02 04:34:36;;;;;;;2.23;2.03;;;;;;;13.23;89.58;97805.88;6254999;28;20384;-44
2022/06/02 04:37:56;;;;;;;2.50;2.30;;;;;;;13.24;89.51;97819.94;6253925;28;20231;-44
2022/06/02 04:41:36;;;;;;;2.67;1.87;;;;;;;13.21;89.44;97826.34;6255247;28;20227;-45
2022/06/02 04:45:04;;;;;;;4.70;1.83;;;;;;;13.25;88.77;97822.47;6136247;28;20288;-48
2022/06/02 04:48:25;;;;;;;1.80;1.70;;;;;;;13.39;88.46;97823.03;6254788;28;20230;-45
2022/06/02 04:51:32;;;;;;;3.50;2.33;;;;;;;13.44;88.15;97832.28;6253955;28;20239;-44
2022/06/02 04:54:45;;;;;;;2.60;2.17;;;;;;;13.44;88.46;97829.63;6254486;28;20593;-45
2022/06/02 04:57:57;;;;;;;3.17;1.90;;;;;;;13.39;88.72;97838.94;6254715;28;20219;-45
2022/06/02 05:01:06;;;;;;;2.00;1.80;;;;;;;13.35;88.58;97851.66;6218385;28;20242;-46
2022/06/02 05:04:14;;;;;;;3.30;1.90;;;;;;;13.35;88.84;97854.31;6254854;28;20625;-48
2022/06/02 05:07:28;;;;;;;1.50;1.40;;;;;;;13.33;89.03;97858.88;6253193;28;20570;-45
2022/06/02 05:10:49;;;;;;;1.77;1.43;;;;;;;13.41;88.67;97867.00;6254238;28;20253;-46
2022/06/02 05:14:04;;;;;;;4.17;2.00;;;;;;;13.51;88.47;97862.56;6236774;28;20713;-46
2022/06/02 05:17:23;;;;;;;2.63;1.83;;;;;;;13.64;87.79;97862.31;6254552;28;20390;-45
2022/06/02 05:20:48;;;;;;;1.70;1.60;;;;;;;13.75;87.48;97864.84;6228721;28;20224;-43
2022/06/02 05:24:47;;;;;;;2.53;1.57;;;;;;;13.88;86.84;97864.53;6245003;28;20220;-46
2022/06/02 05:28:01;;;;;;;3.80;1.60;;;;;;;14.02;86.97;97872.94;6225390;28;20532;-47
2022/06/02 05:31:26;;;;;;;3.27;1.50;;;;;;;14.14;86.43;97881.59;6254148;28;20237;-47
2022/06/02 05:35:09;;;;;;;2.30;1.60;;;;;;;14.31;86.59;97886.19;6229007;28;20239;-49
2022/06/02 05:38:15;;;;;;;2.57;1.50;;;;;;;14.55;85.90;97883.13;6230924;28;20240;-49
2022/06/02 05:41:29;;;;;;;2.07;1.57;;;;;;;14.76;85.56;97880.28;6253912;28;20227;-47
2022/06/02 05:44:41;;;;;;;4.40;1.37;;;;;;;14.93;85.48;97876.84;6252026;28;20231;-46
2022/06/02 05:48:23;;;;;;;2.07;1.80;;;;;;;15.13;84.92;97869.63;6253167;28;20242;-47
2022/06/02 05:51:47;;;;;;;2.47;1.60;;;;;;;15.32;82.70;97872.19;6254038;28;20255;-45
2022/06/02 05:55:08;;;;;;;1.80;1.70;;;;;;;15.56;80.54;97868.19;6253899;28;20302;-45
2022/06/02 05:58:36;;;;;;;2.67;1.67;;;;;;;15.77;80.37;97879.41;6253241;28;20231;-48
2022/06/02 06:01:50;;;;;;;2.10;1.60;;;;;;;15.84;79.86;97875.97;6254402;28;20364;-47
2022/06/02 06:05:14;;;;;;;1.87;1.70;;;;;;;15.86;80.25;97889.97;6253547;28;20281;-49
2022/06/02 06:08:44;;;;;;;1.47;1.37;;;;;;;15.91;80.19;97892.16;6253837;28;20239;-46
2022/06/02 06:11:58;;;;;;;1.67;1.40;;;;;;;16.07;79.43;97891.50;6240592;28;20235;-49
2022/06/02 06:15:05;;;;;;;3.00;1.63;;;;;;;16.20;78.88;97887.44;6253256;28;20738;-49
2022/06/02 06:18:25;;;;;;;2.53;1.70;;;;;;;16.27;78.47;97884.19;6252808;28;20699;-50
2022/06/02 06:22:00;;;;;;;1.63;1.50;;;;;;;16.30;76.95;97894.50;6235638;28;20223;-47
2022/06/02 06:25:23;;;;;;;1.37;1.27;;;;;;;16.48;76.91;97898.81;6122194;28;20300;-49
2022/06/02 06:28:32;;;;;;;1.57;1.10;;;;;;;16.66;75.90;97900.66;6129127;28;20246;-48
2022/06/02 06:31:59;;;;;;;1.90;1.27;;;;;;;16.81;74.32;97912.41;6130455;28;20242;-47
2022/06/02 06:35:36;;;;;;;3.93;1.10;;;;;;;17.01;74.87;97905.03;6129248;28;20318;-50
2022/06/02 06:38:48;;;;;;;1.80;1.40;;;;;;;17.15;74.16;97912.47;6129542;28;20315;-47
2022/06/02 06:42:18;;;;;;;1.43;1.30;;;;;;;17.34;72.65;97917.56;6128816;28;20254;-50
2022/06/02 06:45:44;;;;;;;2.93;1.33;;;;;;;17.37;72.07;97925.22;6131156;28;20738;-44
2022/06/02 06:48:58;;;;;;;2.20;1.53;;;;;;;17.47;72.07;97933.16;6134715;28;20242;-46
2022/06/02 06:52:09;;;;;;;2.70;1.37;;;;;;;17.49;72.51;97934.63;6133480;28;20246;-47
2022/06/02 06:55:29;;;;;;;5.60;1.50;;;;;;;17.43;71.40;97937.13;6133626;28;20242;-45
2022/06/02 06:58:44;;;;;;;1.50;1.37;;;;;;;17.62;70.62;97940.41;6142012;28;20260;-44
2022/06/02 07:02:05;;;;;;;1.67;1.30;;;;;;;17.72;69.76;97939.44;6238074;28;20241;-51
2022/06/02 07:05:20;;;;;;;2.80;1.50;;;;;;;17.85;69.53;97939.81;6256579;28;20231;-45
2022/06/02 07:08:50;;;;;;;1.67;1.57;;;;;;;18.31;68.76;97944.59;6256907;28;20262;-44
2022/06/02 07:15:29;;;;;;;2.00;1.80;;;;;;;18.22;67.33;97945.56;6257583;28;20629;-43
2022/06/02 07:18:43;;;;;;;5.37;1.87;;;;;;;18.04;67.00;97943.03;6257160;28;20280;-45
2022/06/02 07:21:59;;;;;;;3.30;1.50;;;;;;;18.01;67.57;97947.88;6256353;28;20280;-44
2022/06/02 07:25:51;;;;;;;2.13;1.53;;;;;;;18.11;68.35;97956.56;6256715;28;20231;-44
2022/06/02 07:29:12;;;;;;;2.07;1.60;;;;;;;18.23;67.63;97962.44;6117282;28;20269;-44
2022/06/02 07:32:36;;;;;;;3.73;1.50;;;;;;;18.26;67.32;97960.28;6133271;28;20239;-44
2022/06/02 07:35:59;;;;;;;2.80;1.40;;;;;;;18.60;67.66;97962.84;6132871;28;20219;-44
2022/06/02 07:39:42;;;;;;;1.57;1.47;;;;;;;18.93;66.66;97970.88;6132775;28;20303;-45
2022/06/02 07:43:09;;;;;;;3.07;1.67;;;;;;;18.91;65.75;97962.16;6132407;28;20314;-45
2022/06/02 07:46:40;;;;;;;2.33;1.43;;;;;;;19.13;65.64;97982.88;6116343;28;20253;-44
2022/06/02 07:50:14;;;;;;;3.77;1.70;;;;;;;19.66;62.38;97978.78;6132695;28;20238;-45
2022/06/02 07:53:33;;;;;;;2.63;1.60;;;;;;;20.03;59.71;97978.94;6131092;28;20253;-44
2022/06/02 07:57:14;;;;;;;3.47;1.50;;;;;;;20.39;59.66;97976.56;6131364;28;20274;-47
2022/06/02 08:00:24;;;;;;;1.70;1.60;;;;;;;20.92;59.07;97974.84;6143615;28;20568;-45
2022/06/02 09:03:20;;;;;;;2.50;1.50;;;;;;;25.02;47.31;98005.31;5904124;28;20640;-45
2022/06/02 09:07:00;;;;;;;1.40;1.30;;;;;;;24.70;48.19;98009.59;6243873;28;20262;-49
2022/06/02 09:10:34;;;;;;;3.03;1.30;;;;;;;23.87;50.48;98025.00;6253731;28;20263;-45
2022/06/02 09:13:53;;;;;;;2.20;1.00;;;;;;;24.18;47.97;98005.66;6253897;28;20227;-44
2022/06/02 09:17:51;;;;;;;1.53;1.20;;;;;;;24.74;47.24;97999.25;6254050;28;20231;-44
2022/06/02 09:21:13;;;;;;;2.70;1.30;;;;;;;25.20;46.97;98005.53;6134600;28;20381;-44
2022/06/02 09:24:32;;;;;;;1.93;1.40;;;;;;;24.37;47.29;98009.50;6253634;28;20239;-45
2022/06/02 09:27:58;;;;;;;3.57;1.20;;;;;;;24.86;46.61;98030.81;6253298;28;20302;-45
2022/06/02 09:31:20;;;;;;;4.10;1.30;;;;;;;25.18;45.94;98020.28;6236087;28;20227;-47
2022/06/02 09:34:31;;;;;;;1.47;1.30;;;;;;;25.36;46.34;98020.47;6235487;28;20236;-44
2022/06/02 09:38:06;;;;;;;2.13;1.30;;;;;;;25.04;45.20;98024.84;6253827;28;20234;-45
2022/06/02 09:41:28;;;;;;;1.58;1.20;;;;;;;25.23;45.62;98015.09;6235414;28;20224;-45
2022/06/02 09:45:11;;;;;;;1.90;1.48;;;;;;;25.89;44.63;98021.28;6253512;28;20764;-46
2022/06/02 09:49:12;;;;;;;3.33;1.20;;;;;;;26.37;44.04;98021.75;6252847;28;20231;-44
2022/06/02 09:52:40;;;;;;;1.90;1.15;;;;;;;26.87;42.05;98010.22;6149470;28;20334;-45
2022/06/02 09:56:09;;;;;;;1.08;0.98;;;;;;;27.16;39.05;98017.75;6253471;28;20688;-45
2022/06/02 09:59:40;;;;;;;2.60;1.15;;;;;;;27.51;41.22;98012.69;6225339;28;20226;-50
2022/06/02 10:03:11;;;;;;;1.13;0.98;;;;;;;27.74;38.80;98018.34;6211562;28;20244;-44
2022/06/02 10:06:22;;;;;;;2.30;1.10;;;;;;;27.92;38.71;98007.50;6211371;28;20239;-47
2022/06/02 10:09:43;;;;;;;1.27;1.10;;;;;;;28.22;38.02;97998.63;6249600;28;20238;-45
2022/06/02 10:13:02;;;;;;;1.55;1.27;;;;;;;28.19;39.47;97999.88;6252758;28;20239;-51
2022/06/02 10:16:36;;;;;;;1.88;1.17;;;;;;;28.51;40.72;97992.38;6253692;28;20322;-47
2022/06/02 10:19:42;;;;;;;2.47;1.30;;;;;;;28.65;38.44;97993.84;6252801;28;20238;-45
2022/06/02 10:22:57;;;;;;;1.13;1.02;;;;;;;28.83;37.42;97997.59;6253624;28;20230;-47
2022/06/02 10:26:22;;;;;;;1.45;1.00;;;;;;;28.95;36.45;97993.00;6252802;28;20737;-50
2022/06/02 10:29:43;;;;;;;1.30;1.20;;;;;;;28.83;37.10;97994.88;6252591;28;20223;-51
2022/06/02 10:33:23;;;;;;;4.28;1.20;;;;;;;28.84;34.34;97997.38;6251188;28;20239;-50
2022/06/02 10:37:00;;;;;;;1.60;1.23;;;;;;;28.86;37.19;97992.50;6252443;28;20709;-52
2022/06/02 10:40:36;;;;;;;1.42;1.10;;;;;;;29.49;34.92;97985.66;6252073;28;20239;-50
2022/06/02 10:44:06;;;;;;;1.77;1.40;;;;;;;29.86;34.92;97987.06;6257634;28;20269;-49
2022/06/02 10:47:54;;;;;;;2.28;1.35;;;;;;;29.91;32.18;97989.09;6251295;28;20230;-50
2022/06/02 10:51:38;;;;;;;1.15;1.05;;;;;;;30.25;33.85;97993.63;6252188;28;20227;-47
2022/06/02 10:55:08;;;;;;;2.45;1.30;;;;;;;30.75;33.21;97991.09;6197797;28;20250;-46
2022/06/02 10:58:14;;;;;;;1.45;1.27;;;;;;;30.58;33.51;97995.69;6213093;28;20257;-51
2022/06/02 11:02:01;;;;;;;3.95;1.13;;;;;;;30.97;29.98;97993.13;6251954;28;20772;-49
2022/06/02 11:05:34;;;;;;;2.08;1.27;;;;;;;29.91;30.72;97991.81;6177100;28;20408;-50
2022/06/02 11:09:33;;;;;;;2.92;1.10;;;;;;;28.43;36.17;97992.69;6177167;28;20616;-50
2022/06/02 11:13:06;;;;;;;1.30;0.90;;;;;;;28.11;38.09;97997.44;6176579;28;20693;-49
2022/06/02 11:16:36;;;;;;;1.13;1.10;;;;;;;28.89;38.44;97992.06;6177116;28;20229;-47
2022/06/02 11:20:06;;;;;;;1.30;1.20;;;;;;;29.72;34.68;97981.06;6176561;28;20233;-51
2022/06/02 11:23:17;;;;;;;2.33;1.38;;;;;;;29.19;36.18;97985.72;6176134;28;20661;-49
2022/06/02 11:27:14;;;;;;;2.05;1.17;;;;;;;29.14;39.96;97981.03;6155954;28;20237;-49
2022/06/02 11:30:38;;;;;;;1.98;1.05;;;;;;;29.83;35.31;97982.13;6176214;28;20205;-52
2022/06/02 11:34:25;;;;;;;1.70;0.98;;;;;;;30.44;30.25;97977.97;6181327;28;20761;-48
2022/06/02 11:37:58;;;;;;;1.95;1.27;;;;;;;30.04;32.83;97977.97;6233220;28;20216;-51
2022/06/02 11:41:26;;;;;;;1.45;1.35;;;;;;;30.10;31.50;97971.56;6232263;28;20268;-50
2022/06/02 11:44:44;;;;;;;2.47;1.23;;;;;;;30.87;31.30;97968.41;6232448;28;20239;-51
2022/06/02 11:48:05;;;;;;;1.30;1.20;;;;;;;31.42;30.85;97972.09;6231825;28;20294;-52
2022/06/02 11:51:35;;;;;;;1.30;1.13;;;;;;;31.75;32.08;97987.63;6231704;28;20228;-47
2022/06/02 11:55:19;;;;;;;1.90;1.02;;;;;;;32.06;29.13;97968.91;6232117;28;20711;-48
2022/06/02 11:58:51;;;;;;;1.33;1.20;;;;;;;32.47;28.79;97973.00;6233577;28;20335;-52
2022/06/02 12:02:11;;;;;;;1.25;1.00;;;;;;;32.95;28.83;97967.50;6232217;28;20231;-51
2022/06/02 12:05:32;;;;;;;1.40;1.30;;;;;;;32.40;27.82;97966.91;6255946;28;20235;-51
2022/06/02 12:08:49;;;;;;;1.20;1.15;;;;;;;32.37;28.54;97961.94;6238572;28;20240;-50
2022/06/02 12:12:19;;;;;;;1.40;1.30;;;;;;;31.39;29.82;97966.31;6255846;28;20239;-51
2022/06/02 12:15:24;;;;;;;1.85;1.30;;;;;;;31.10;31.56;97960.13;6255995;28;20675;-51
2022/06/02 12:18:31;;;;;;;1.83;1.20;;;;;;;31.73;29.35;97948.84;6255575;28;20310;-48
2022/06/02 12:22:11;;;;;;;1.40;1.30;;;;;;;31.10;30.20;97949.22;6258089;28;20302;-47
2022/06/02 12:25:42;;;;;;;1.90;1.20;;;;;;;30.97;31.13;97949.50;6255774;28;20239;-47
2022/06/02 12:28:54;;;;;;;1.50;1.40;;;;;;;30.04;31.25;97959.75;6255573;28;20222;-52
2022/06/02 12:31:59;;;;;;;1.65;1.40;;;;;;;30.45;30.54;97946.91;6254247;28;20345;-48
2022/06/02 12:35:07;;;;;;;1.95;1.20;;;;;;;31.44;30.69;97944.56;6257204;28;20263;-50
2022/06/02 12:38:31;;;;;;;2.53;1.70;;;;;;;30.56;29.27;97946.06;6255791;28;20238;-47
2022/06/02 12:42:11;;;;;;;4.68;2.00;;;;;;;30.37;30.35;97953.56;6255377;28;20239;-50
2022/06/02 12:45:21;;;;;;;2.05;1.40;;;;;;;30.36;31.17;97951.91;6254101;28;20230;-52
2022/06/02 12:48:34;;;;;;;1.60;1.23;;;;;;;31.22;30.15;97935.50;6254278;28;20227;-51
2022/06/02 12:51:54;;;;;;;1.65;1.33;;;;;;;30.98;30.04;97942.97;6255815;28;20227;-52
2022/06/02 12:55:29;;;;;;;2.55;1.48;;;;;;;31.22;29.62;97939.06;6254762;28;20638;-48
2022/06/02 12:58:37;;;;;;;2.45;1.35;;;;;;;31.82;28.14;97938.31;6236230;28;20231;-52
2022/06/02 13:02:06;;;;;;;3.10;1.23;;;;;;;32.07;29.88;97930.44;6254586;28;20285;-50
2022/06/02 13:05:18;;;;;;;1.90;1.38;;;;;;;32.50;29.88;97923.28;6254329;28;20242;-51
2022/06/02 13:08:32;;;;;;;1.50;1.40;;;;;;;32.36;28.73;97916.56;6254577;28;20714;-51
2022/06/02 13:12:03;;;;;;;1.45;1.27;;;;;;;32.18;28.47;97928.69;6254666;28;20346;-51
2022/06/02 13:15:32;;;;;;;2.60;1.42;;;;;;;32.44;25.99;97932.53;6254595;28;20618;-51
2022/06/02 13:19:12;;;;;;;2.63;1.10;;;;;;;30.83;27.58;97931.84;6254011;28;20605;-50
2022/06/02 13:22:39;;;;;;;2.85;1.10;;;;;;;30.54;32.66;97934.59;6254067;28;20239;-50
2022/06/02 13:26:23;;;;;;;1.13;1.02;;;;;;;30.53;33.15;97932.13;6254758;28;20241;-48
2022/06/02 13:29:28;;;;;;;1.27;1.17;;;;;;;31.38;33.02;97930.03;6253617;28;20635;-48
2022/06/02 13:33:10;;;;;;;1.95;1.30;;;;;;;32.13;31.16;97917.69;6254469;28;20235;-52
2022/06/02 13:36:24;;;;;;;1.10;1.00;;;;;;;32.57;29.18;97908.34;6254327;28;20598;-51
2022/06/02 13:39:26;;;;;;;2.10;1.30;;;;;;;33.04;28.70;97915.91;6254407;28;20868;-53
2022/06/02 13:43:04;;;;;;;2.28;1.35;;;;;;;32.05;27.06;97915.38;6236339;28;20269;-46
2022/06/02 13:46:12;;;;;;;1.77;1.40;;;;;;;31.84;29.35;97917.06;6252949;28;20274;-49
2022/06/02 13:49:45;;;;;;;1.63;1.30;;;;;;;31.21;28.27;97910.13;6253096;28;20267;-51
2022/06/02 13:53:20;;;;;;;3.47;1.20;;;;;;;31.52;30.79;97917.69;6252765;28;20710;-49
2022/06/02 14:00:41;;;;;;;3.22;1.08;;;;;;;31.97;32.75;97910.38;6252280;28;20232;-50
2022/06/02 14:04:22;;;;;;;1.48;1.00;;;;;;;32.41;32.16;97924.84;6252832;28;20533;-49
2022/06/02 14:07:31;;;;;;;2.65;1.02;;;;;;;32.90;32.35;97915.50;6186782;28;20668;-49
2022/06/02 14:11:09;;;;;;;2.15;0.90;;;;;;;33.46;30.85;97915.09;6253971;28;20326;-48
2022/06/02 14:14:26;;;;;;;2.45;1.10;;;;;;;34.27;24.41;97913.63;6219281;28;20726;-52
2022/06/02 14:17:57;;;;;;;1.60;0.90;;;;;;;36.20;24.05;97916.28;6252344;28;20238;-52
2022/06/02 14:21:21;;;;;;;1.77;1.20;;;;;;;37.87;24.21;97905.88;6252635;28;20369;-48
2022/06/02 14:24:58;;;;;;;2.58;1.10;;;;;;;38.36;24.00;97924.84;6252824;28;20223;-53
2022/06/02 14:28:10;;;;;;;1.98;1.13;;;;;;;36.29;24.94;97928.34;6252703;28;20235;-53
2022/06/02 14:31:27;;;;;;;2.42;1.13;;;;;;;34.72;29.91;97931.28;6253366;28;20293;-51
2022/06/02 14:35:05;;;;;;;1.73;1.10;;;;;;;34.21;28.05;97931.13;6253218;28;20389;-50
2022/06/02 14:38:19;;;;;;;1.13;1.00;;;;;;;32.85;30.19;97931.84;6252571;28;20284;-50
2022/06/02 14:42:00;;;;;;;1.63;1.40;;;;;;;31.50;35.27;97941.66;6253939;28;20234;-49
2022/06/02 14:45:13;;;;;;;1.17;0.93;;;;;;;30.51;36.11;97934.22;6252143;28;20507;-51
2022/06/02 14:48:30;;;;;;;0.80;0.80;;;;;;;29.87;36.21;97939.72;6252903;28;20223;-52
2022/06/02 14:51:38;;;;;;;1.08;0.82;;;;;;;29.50;37.52;97930.22;6252352;28;20310;-52
2022/06/02 14:55:20;;;;;;;1.35;1.23;;;;;;;29.08;38.75;97934.91;6252964;28;20239;-51
2022/06/02 14:58:34;;;;;;;1.73;1.25;;;;;;;28.54;39.68;97934.06;6251388;28;20239;-52
2022/06/02 15:01:53;;;;;;;1.33;0.90;;;;;;;28.18;40.69;97934.97;6253300;28;20227;-51
2022/06/02 15:05:19;;;;;;;1.15;0.90;;;;;;;28.15;40.78;97936.22;6254676;28;20266;-52
2022/06/02 15:08:50;;;;;;;1.23;1.10;;;;;;;28.02;41.10;97933.69;6257769;28;20376;-48
2022/06/02 15:12:03;;;;;;;1.00;0.80;;;;;;;27.67;41.83;97927.22;6257529;28;20306;-50
2022/06/02 15:15:33;;;;;;;2.13;1.20;;;;;;;27.22;43.03;97923.91;6256439;28;20326;-51
2022/06/02 15:19:06;;;;;;;4.38;1.00;;;;;;;26.96;43.76;97923.06;6267465;28;20376;-50
2022/06/02 15:22:51;;;;;;;1.35;1.00;;;;;;;27.17;44.00;97925.41;6256497;28;20223;-51
2022/06/02 15:26:29;;;;;;;3.15;1.00;;;;;;;27.43;43.36;97928.91;6256603;28;20234;-52
2022/06/02 15:29:44;;;;;;;1.30;1.13;;;;;;;27.48;42.20;97926.34;6256752;28;20276;-51
2022/06/02 15:33:10;;;;;;;1.80;1.30;;;;;;;27.94;40.83;97930.47;6258177;28;20239;-51
2022/06/02 15:36:37;;;;;;;1.08;0.95;;;;;;;28.99;38.91;97928.97;6232867;28;20235;-53
2022/06/02 15:39:54;;;;;;;1.45;1.00;;;;;;;28.78;38.89;97918.66;6257822;28;20670;-51
2022/06/02 15:43:31;;;;;;;1.00;1.00;;;;;;;29.49;38.09;97923.13;6256226;28;20628;-51
2022/06/02 15:47:15;;;;;;;6.30;1.52;;;;;;;31.07;35.79;97920.50;6256603;28;20235;-52
2022/06/02 15:50:44;;;;;;;1.52;1.40;;;;;;;33.68;30.84;97913.06;6255751;28;20227;-52
2022/06/02 15:54:27;;;;;;;2.10;1.05;;;;;;;35.31;28.42;97917.06;6256261;28;20238;-53
2022/06/02 15:57:54;;;;;;;3.15;1.23;;;;;;;35.67;28.43;97923.31;6255157;28;20230;-48
2022/06/02 16:05:21;;;;;;;2.72;1.23;;;;;;;36.24;26.42;97931.09;6154626;28;20345;-53
2022/06/02 16:13:02;;;;;;;1.33;1.05;;;;;;;33.67;31.34;97928.66;6155083;28;20284;-47
2022/06/02 16:16:34;;;;;;;1.50;1.20;;;;;;;30.59;36.65;97934.69;6155128;28;20373;-47
2022/06/02 16:19:40;;;;;;;1.30;1.10;;;;;;;28.93;40.24;97935.38;6155773;28;20229;-48
2022/06/02 16:23:29;;;;;;;1.40;1.30;;;;;;;27.64;42.58;97942.06;6155251;28;20238;-47
2022/06/02 16:27:08;;;;;;;4.93;1.30;;;;;;;26.75;44.45;97945.13;6136923;28;20254;-47
2022/06/02 16:30:20;;;;;;;2.95;1.20;;;;;;;25.90;47.28;97933.69;6155109;28;20238;-48
2022/06/02 16:33:32;;;;;;;1.88;1.25;;;;;;;25.59;47.96;97936.25;6139045;28;20234;-46
2022/06/02 16:37:06;;;;;;;3.58;1.52;;;;;;;25.45;48.57;97938.19;6154034;28;20262;-46
2022/06/02 16:40:28;;;;;;;5.28;1.55;;;;;;;24.77;50.23;97947.50;6167388;28;20231;-47
2022/06/02 16:43:36;;;;;;;3.15;1.50;;;;;;;24.40;51.54;97951.59;6230509;28;20317;-46
2022/06/02 16:47:10;;;;;;;3.15;1.70;;;;;;;23.90;52.92;97945.59;6230405;28;20240;-47
2022/06/02 16:50:38;;;;;;;4.95;1.42;;;;;;;23.29;55.19;97942.75;6178370;28;20239;-46
2022/06/02 16:54:13;;;;;;;2.30;1.30;;;;;;;22.77;56.65;97945.84;6230456;28;20236;-47
2022/06/02 16:57:32;;;;;;;2.23;1.47;;;;;;;22.46;57.54;97951.53;6218792;28;20233;-47
2022/06/02 17:00:39;;;;;;;3.17;1.30;;;;;;;22.12;58.94;97944.16;6229624;28;20226;-47
2022/06/02 17:04:08;;;;;;;4.80;1.30;;;;;;;21.77;59.60;97937.69;6245393;28;20713;-46
2022/06/02 17:07:44;;;;;;;2.23;1.40;;;;;;;21.51;60.80;97940.88;6237608;28;20599;-48
2022/06/02 17:11:24;;;;;;;3.47;1.60;;;;;;;21.33;60.92;97951.97;6223540;28;20369;-45
2022/06/02 17:14:44;;;;;;;3.00;1.50;;;;;;;21.42;60.47;97959.94;6233633;28;20619;-47
2022/06/02 17:18:05;;;;;;;3.30;1.60;;;;;;;21.45;60.07;97951.53;6254238;28;20254;-49
2022/06/02 17:21:31;;;;;;;4.37;1.50;;;;;;;21.33;61.34;97943.09;6253720;28;20321;-48
2022/06/02 17:24:58;;;;;;;8.50;1.80;;;;;;;21.19;61.78;97938.53;6253812;28;20329;-47